sensor_id;sensor_type;location;lat;lon;timestamp;pressure;altitude;pressure_sealevel;temperature;humidity
51468;BME280;37545;45.302;-122.946;2022-11-28T00:01:48;101051.91;;;8.46;100.00
51468;BME280;37545;45.302;-122.946;2022-11-28T00:04:17;101046.38;;;8.38;100.00
51468;BME280;37545;45.302;-122.946;2022-11-28T00:06:53;101043.78;;;8.38;100.00
51468;BME280;37545;45.302;-122.946;2022-11-28T00:09:24;101045.56;;;8.39;100.00
51468;BME280;37545;45.302;-122.946;2022-11-28T00:11:52;101039.53;;;8.38;100.00
51468;BME280;37545;45.302;-122.946;2022-11-28T00:14:21;101041.28;;;8.39;100.00
51468;BME280;37545;45.302;-122.946;2022-11-28T00:16:50;101038.81;;;8.41;100.00
51468;BME280;37545;45.302;-122.946;2022-11-28T00:19:19;101047.34;;;8.40;100.00
51468;BME280;37545;45.302;-122.946;2022-11-28T00:21:48;101050.72;;;8.39;100.00
51468;BME280;37545;45.302;-122.946;2022-11-28T00:24:17;101057.44;;;8.35;100.00
51468;BME280;37545;45.302;-122.946;2022-11-28T00:26:47;101059.16;;;8.35;100.00
51468;BME280;37545;45.302;-122.946;2022-11-28T00:29:16;101068.50;;;8.33;100.00
51468;BME280;37545;45.302;-122.946;2022-11-28T00:31:45;101067.63;;;8.32;100.00
51468;BME280;37545;45.302;-122.946;2022-11-28T00:34:14;101063.03;;;8.25;100.00
51468;BME280;37545;45.302;-122.946;2022-11-28T00:36:44;101058.47;;;8.19;100.00
51468;BME280;37545;45.302;-122.946;2022-11-28T00:39:13;101061.88;;;8.18;100.00
51468;BME280;37545;45.302;-122.946;2022-11-28T00:41:43;101040.84;;;8.09;100.00
51468;BME280;37545;45.302;-122.946;2022-11-28T00:44:13;101045.72;;;8.03;100.00
51468;BME280;37545;45.302;-122.946;2022-11-28T00:46:42;101044.66;;;7.98;100.00
51468;BME280;37545;45.302;-122.946;2022-11-28T00:49:11;101037.38;;;7.89;100.00
51468;BME280;37545;45.302;-122.946;2022-11-28T00:51:40;101038.13;;;7.87;100.00
51468;BME280;37545;45.302;-122.946;2022-11-28T00:54:11;101040.03;;;7.91;100.00
51468;BME280;37545;45.302;-122.946;2022-11-28T00:56:40;101048.56;;;7.90;100.00
51468;BME280;37545;45.302;-122.946;2022-11-28T00:59:08;101042.63;;;7.91;100.00
51468;BME280;37545;45.302;-122.946;2022-11-28T01:01:40;101038.25;;;7.90;100.00
51468;BME280;37545;45.302;-122.946;2022-11-28T01:04:11;101046.91;;;7.90;100.00
51468;BME280;37545;45.302;-122.946;2022-11-28T01:06:41;101047.69;;;7.89;100.00
51468;BME280;37545;45.302;-122.946;2022-11-28T01:09:11;101043.38;;;7.88;100.00
51468;BME280;37545;45.302;-122.946;2022-11-28T01:11:41;101039.88;;;7.88;100.00
51468;BME280;37545;45.302;-122.946;2022-11-28T01:14:12;101046.53;;;7.83;100.00
51468;BME280;37545;45.302;-122.946;2022-11-28T01:16:42;101033.31;;;7.75;100.00
51468;BME280;37545;45.302;-122.946;2022-11-28T01:19:11;101037.44;;;7.71;100.00
51468;BME280;37545;45.302;-122.946;2022-11-28T01:21:40;101030.53;;;7.70;100.00
51468;BME280;37545;45.302;-122.946;2022-11-28T01:24:09;101034.72;;;7.68;100.00
51468;BME280;37545;45.302;-122.946;2022-11-28T01:26:38;101037.31;;;7.68;100.00
51468;BME280;37545;45.302;-122.946;2022-11-28T01:29:10;101036.47;;;7.69;100.00
51468;BME280;37545;45.302;-122.946;2022-11-28T01:31:39;101040.91;;;7.72;100.00
51468;BME280;37545;45.302;-122.946;2022-11-28T01:34:09;101041.84;;;7.74;100.00
51468;BME280;37545;45.302;-122.946;2022-11-28T01:36:38;101041.13;;;7.76;100.00
51468;BME280;37545;45.302;-122.946;2022-11-28T01:39:07;101041.13;;;7.76;100.00
51468;BME280;37545;45.302;-122.946;2022-11-28T01:41:36;101041.16;;;7.78;100.00
51468;BME280;37545;45.302;-122.946;2022-11-28T01:44:56;101032.44;;;7.74;100.00
51468;BME280;37545;45.302;-122.946;2022-11-28T01:46:56;101032.81;;;7.64;100.00
51468;BME280;37545;45.302;-122.946;2022-11-28T01:49:29;101013.06;;;7.45;100.00
51468;BME280;37545;45.302;-122.946;2022-11-28T01:52:03;101031.00;;;7.44;100.00
51468;BME280;37545;45.302;-122.946;2022-11-28T01:54:33;101034.13;;;7.37;100.00
51468;BME280;37545;45.302;-122.946;2022-11-28T01:57:06;101040.75;;;7.31;100.00
51468;BME280;37545;45.302;-122.946;2022-11-28T01:59:39;101038.09;;;7.30;100.00
51468;BME280;37545;45.302;-122.946;2022-11-28T02:02:14;101028.84;;;7.33;100.00
51468;BME280;37545;45.302;-122.946;2022-11-28T02:04:47;101029.72;;;7.34;100.00
51468;BME280;37545;45.302;-122.946;2022-11-28T02:07:18;101020.16;;;7.31;100.00
51468;BME280;37545;45.302;-122.946;2022-11-28T02:09:46;101021.78;;;7.29;100.00
51468;BME280;37545;45.302;-122.946;2022-11-28T02:12:27;101014.72;;;7.25;100.00
51468;BME280;37545;45.302;-122.946;2022-11-28T02:15:25;101009.44;;;7.22;100.00
51468;BME280;37545;45.302;-122.946;2022-11-28T02:18:21;101007.94;;;7.27;100.00
51468;BME280;37545;45.302;-122.946;2022-11-28T02:21:11;101002.22;;;7.33;100.00
51468;BME280;37545;45.302;-122.946;2022-11-28T02:24:29;101003.22;;;7.37;100.00
51468;BME280;37545;45.302;-122.946;2022-11-28T02:27:28;101005.81;;;7.37;100.00
51468;BME280;37545;45.302;-122.946;2022-11-28T02:30:11;100988.75;;;7.39;100.00
51468;BME280;37545;45.302;-122.946;2022-11-28T02:32:56;100984.53;;;7.41;100.00
51468;BME280;37545;45.302;-122.946;2022-11-28T02:35:35;100975.94;;;7.40;100.00
51468;BME280;37545;45.302;-122.946;2022-11-28T02:38:17;100971.25;;;7.31;100.00
51468;BME280;37545;45.302;-122.946;2022-11-28T02:40:52;100958.25;;;7.28;100.00
51468;BME280;37545;45.302;-122.946;2022-11-28T02:43:30;100964.09;;;7.26;100.00
51468;BME280;37545;45.302;-122.946;2022-11-28T02:46:05;100959.78;;;7.25;100.00
51468;BME280;37545;45.302;-122.946;2022-11-28T02:48:44;100939.66;;;7.16;100.00
51468;BME280;37545;45.302;-122.946;2022-11-28T02:51:19;100940.69;;;7.20;100.00
51468;BME280;37545;45.302;-122.946;2022-11-28T02:53:50;100950.16;;;7.21;100.00
51468;BME280;37545;45.302;-122.946;2022-11-28T02:56:22;100952.66;;;7.19;100.00
51468;BME280;37545;45.302;-122.946;2022-11-28T02:58:51;100956.88;;;7.17;100.00
51468;BME280;37545;45.302;-122.946;2022-11-28T03:01:23;100962.69;;;7.13;100.00
51468;BME280;37545;45.302;-122.946;2022-11-28T03:04:03;100953.13;;;7.10;100.00
51468;BME280;37545;45.302;-122.946;2022-11-28T03:06:47;100953.88;;;7.08;100.00
51468;BME280;37545;45.302;-122.946;2022-11-28T03:09:28;100955.50;;;7.06;100.00
51468;BME280;37545;45.302;-122.946;2022-11-28T03:12:13;100939.63;;;6.97;100.00
51468;BME280;37545;45.302;-122.946;2022-11-28T03:14:49;100934.75;;;6.85;100.00
51468;BME280;37545;45.302;-122.946;2022-11-28T03:17:23;100940.50;;;6.79;100.00
51468;BME280;37545;45.302;-122.946;2022-11-28T03:20:17;100942.25;;;6.80;100.00
51468;BME280;37545;45.302;-122.946;2022-11-28T03:23:00;100945.78;;;6.82;100.00
51468;BME280;37545;45.302;-122.946;2022-11-28T03:25:31;100949.31;;;6.84;100.00
51468;BME280;37545;45.302;-122.946;2022-11-28T03:28:05;100959.59;;;6.84;100.00
51468;BME280;37545;45.302;-122.946;2022-11-28T03:30:42;100947.56;;;6.83;100.00
51468;BME280;37545;45.302;-122.946;2022-11-28T03:33:13;100943.94;;;6.80;100.00
51468;BME280;37545;45.302;-122.946;2022-11-28T03:35:49;100941.75;;;6.69;100.00
51468;BME280;37545;45.302;-122.946;2022-11-28T03:38:26;100941.31;;;6.78;100.00
51468;BME280;37545;45.302;-122.946;2022-11-28T03:40:58;100949.97;;;6.80;100.00
51468;BME280;37545;45.302;-122.946;2022-11-28T03:43:35;100923.97;;;6.74;100.00
51468;BME280;37545;45.302;-122.946;2022-11-28T03:46:10;100914.94;;;6.64;100.00
51468;BME280;37545;45.302;-122.946;2022-11-28T03:48:43;100938.22;;;6.67;100.00
51468;BME280;37545;45.302;-122.946;2022-11-28T03:51:15;100931.38;;;6.68;100.00
51468;BME280;37545;45.302;-122.946;2022-11-28T03:53:50;100918.44;;;6.66;100.00
51468;BME280;37545;45.302;-122.946;2022-11-28T03:56:24;100913.78;;;6.58;100.00
51468;BME280;37545;45.302;-122.946;2022-11-28T03:58:59;100916.13;;;6.53;100.00
51468;BME280;37545;45.302;-122.946;2022-11-28T04:01:33;100910.91;;;6.52;100.00
51468;BME280;37545;45.302;-122.946;2022-11-28T04:04:10;100915.09;;;6.49;100.00
51468;BME280;37545;45.302;-122.946;2022-11-28T04:06:52;100902.22;;;6.49;100.00
51468;BME280;37545;45.302;-122.946;2022-11-28T04:09:32;100911.72;;;6.50;100.00
51468;BME280;37545;45.302;-122.946;2022-11-28T04:12:08;100905.75;;;6.52;100.00
51468;BME280;37545;45.302;-122.946;2022-11-28T04:14:43;100906.72;;;6.54;100.00
51468;BME280;37545;45.302;-122.946;2022-11-28T04:17:16;100900.69;;;6.53;100.00
51468;BME280;37545;45.302;-122.946;2022-11-28T04:19:49;100897.31;;;6.54;100.00
51468;BME280;37545;45.302;-122.946;2022-11-28T04:22:23;100896.22;;;6.49;100.00
51468;BME280;37545;45.302;-122.946;2022-11-28T04:24:56;100890.69;;;6.41;100.00
51468;BME280;37545;45.302;-122.946;2022-11-28T04:27:28;100888.84;;;6.39;100.00
51468;BME280;37545;45.302;-122.946;2022-11-28T04:30:00;100895.78;;;6.40;100.00
51468;BME280;37545;45.302;-122.946;2022-11-28T04:32:30;100894.00;;;6.39;100.00
51468;BME280;37545;45.302;-122.946;2022-11-28T04:35:04;100893.94;;;6.37;100.00
51468;BME280;37545;45.302;-122.946;2022-11-28T04:37:38;100887.00;;;6.36;100.00
51468;BME280;37545;45.302;-122.946;2022-11-28T04:40:10;100886.13;;;6.36;100.00
51468;BME280;37545;45.302;-122.946;2022-11-28T04:42:42;100881.88;;;6.36;100.00
51468;BME280;37545;45.302;-122.946;2022-11-28T04:45:15;100882.75;;;6.37;100.00
51468;BME280;37545;45.302;-122.946;2022-11-28T04:47:44;100880.13;;;6.35;100.00
51468;BME280;37545;45.302;-122.946;2022-11-28T04:50:13;100877.59;;;6.37;100.00
51468;BME280;37545;45.302;-122.946;2022-11-28T04:52:48;100880.19;;;6.37;100.00
51468;BME280;37545;45.302;-122.946;2022-11-28T04:55:25;100873.22;;;6.34;100.00
51468;BME280;37545;45.302;-122.946;2022-11-28T04:58:03;100875.63;;;6.31;100.00
51468;BME280;37545;45.302;-122.946;2022-11-28T05:00:37;100871.00;;;6.24;100.00
51468;BME280;37545;45.302;-122.946;2022-11-28T05:03:06;100865.34;;;6.13;100.00
51468;BME280;37545;45.302;-122.946;2022-11-28T05:05:42;100859.75;;;6.04;100.00
51468;BME280;37545;45.302;-122.946;2022-11-28T05:08:13;100865.47;;;5.98;100.00
51468;BME280;37545;45.302;-122.946;2022-11-28T05:10:42;100862.00;;;5.98;100.00
51468;BME280;37545;45.302;-122.946;2022-11-28T05:13:11;100853.44;;;5.97;100.00
51468;BME280;37545;45.302;-122.946;2022-11-28T05:15:39;100843.16;;;5.97;100.00
51468;BME280;37545;45.302;-122.946;2022-11-28T05:18:08;100851.81;;;5.99;100.00
51468;BME280;37545;45.302;-122.946;2022-11-28T05:20:37;100847.66;;;6.01;100.00
51468;BME280;37545;45.302;-122.946;2022-11-28T05:23:06;100840.75;;;6.00;100.00
51468;BME280;37545;45.302;-122.946;2022-11-28T05:25:38;100832.31;;;6.03;100.00
51468;BME280;37545;45.302;-122.946;2022-11-28T05:28:08;100827.22;;;6.04;100.00
51468;BME280;37545;45.302;-122.946;2022-11-28T05:30:36;100835.16;;;6.09;100.00
51468;BME280;37545;45.302;-122.946;2022-11-28T05:33:05;100832.03;;;6.15;100.00
51468;BME280;37545;45.302;-122.946;2022-11-28T05:35:34;100837.38;;;6.19;100.00
51468;BME280;37545;45.302;-122.946;2022-11-28T05:38:02;100847.81;;;6.22;100.00
51468;BME280;37545;45.302;-122.946;2022-11-28T05:40:31;100846.19;;;6.24;100.00
51468;BME280;37545;45.302;-122.946;2022-11-28T05:43:02;100844.44;;;6.23;100.00
51468;BME280;37545;45.302;-122.946;2022-11-28T05:45:31;100833.94;;;6.19;100.00
51468;BME280;37545;45.302;-122.946;2022-11-28T05:47:59;100838.25;;;6.20;100.00
51468;BME280;37545;45.302;-122.946;2022-11-28T05:50:28;100835.78;;;6.21;100.00
51468;BME280;37545;45.302;-122.946;2022-11-28T05:52:57;100813.63;;;6.23;100.00
51468;BME280;37545;45.302;-122.946;2022-11-28T05:55:25;100814.63;;;6.27;100.00
51468;BME280;37545;45.302;-122.946;2022-11-28T05:57:54;100807.78;;;6.27;100.00
51468;BME280;37545;45.302;-122.946;2022-11-28T06:00:25;100801.72;;;6.25;100.00
51468;BME280;37545;45.302;-122.946;2022-11-28T06:02:54;100793.94;;;6.24;100.00
51468;BME280;37545;45.302;-122.946;2022-11-28T06:05:22;100789.75;;;6.26;100.00
51468;BME280;37545;45.302;-122.946;2022-11-28T06:07:51;100799.38;;;6.30;100.00
51468;BME280;37545;45.302;-122.946;2022-11-28T06:10:20;100790.84;;;6.31;100.00
51468;BME280;37545;45.302;-122.946;2022-11-28T06:12:49;100774.31;;;6.26;100.00
51468;BME280;37545;45.302;-122.946;2022-11-28T06:15:18;100784.09;;;6.33;100.00
51468;BME280;37545;45.302;-122.946;2022-11-28T06:17:49;100777.25;;;6.34;100.00
51468;BME280;37545;45.302;-122.946;2022-11-28T06:20:17;100774.69;;;6.34;100.00
51468;BME280;37545;45.302;-122.946;2022-11-28T06:22:46;100772.84;;;6.31;100.00
51468;BME280;37545;45.302;-122.946;2022-11-28T06:25:15;100776.28;;;6.32;100.00
51468;BME280;37545;45.302;-122.946;2022-11-28T06:27:44;100773.81;;;6.33;100.00
51468;BME280;37545;45.302;-122.946;2022-11-28T06:30:13;100779.72;;;6.32;100.00
51468;BME280;37545;45.302;-122.946;2022-11-28T06:32:42;100780.47;;;6.29;100.00
51468;BME280;37545;45.302;-122.946;2022-11-28T06:35:12;100789.09;;;6.30;100.00
51468;BME280;37545;45.302;-122.946;2022-11-28T06:37:41;100780.44;;;6.28;100.00
51468;BME280;37545;45.302;-122.946;2022-11-28T06:40:10;100777.78;;;6.26;100.00
51468;BME280;37545;45.302;-122.946;2022-11-28T06:42:38;100766.66;;;6.27;100.00
51468;BME280;37545;45.302;-122.946;2022-11-28T06:45:08;100754.72;;;6.28;100.00
51468;BME280;37545;45.302;-122.946;2022-11-28T06:47:37;100764.19;;;6.29;100.00
51468;BME280;37545;45.302;-122.946;2022-11-28T06:50:06;100766.00;;;6.32;100.00
51468;BME280;37545;45.302;-122.946;2022-11-28T06:52:37;100754.78;;;6.29;100.00
51468;BME280;37545;45.302;-122.946;2022-11-28T06:55:06;100753.78;;;6.26;100.00
51468;BME280;37545;45.302;-122.946;2022-11-28T06:57:35;100754.44;;;6.22;100.00
51468;BME280;37545;45.302;-122.946;2022-11-28T07:00:05;100759.56;;;6.22;100.00
51468;BME280;37545;45.302;-122.946;2022-11-28T07:02:34;100755.38;;;6.24;100.00
51468;BME280;37545;45.302;-122.946;2022-11-28T07:05:03;100752.91;;;6.25;100.00
51468;BME280;37545;45.302;-122.946;2022-11-28T07:07:32;100758.09;;;6.27;100.00
51468;BME280;37545;45.302;-122.946;2022-11-28T07:10:03;100752.94;;;6.27;100.00
51468;BME280;37545;45.302;-122.946;2022-11-28T07:12:31;100740.06;;;6.25;100.00
51468;BME280;37545;45.302;-122.946;2022-11-28T07:15:00;100739.88;;;6.22;100.00
51468;BME280;37545;45.302;-122.946;2022-11-28T07:17:36;100736.16;;;6.16;100.00
51468;BME280;37545;45.302;-122.946;2022-11-28T07:20:06;100734.09;;;6.08;100.00
51468;BME280;37545;45.302;-122.946;2022-11-28T07:22:35;100714.81;;;5.99;100.00
51468;BME280;37545;45.302;-122.946;2022-11-28T07:25:06;100714.47;;;5.93;100.00
51468;BME280;37545;45.302;-122.946;2022-11-28T07:27:35;100714.13;;;5.85;100.00
51468;BME280;37545;45.302;-122.946;2022-11-28T07:30:05;100705.38;;;5.81;100.00
51468;BME280;37545;45.302;-122.946;2022-11-28T07:32:34;100696.03;;;5.82;100.00
51468;BME280;37545;45.302;-122.946;2022-11-28T07:35:03;100685.59;;;5.79;100.00
51468;BME280;37545;45.302;-122.946;2022-11-28T07:37:33;100683.84;;;5.78;100.00
51468;BME280;37545;45.302;-122.946;2022-11-28T07:40:05;100683.75;;;5.76;100.00
51468;BME280;37545;45.302;-122.946;2022-11-28T07:42:34;100679.34;;;5.74;100.00
51468;BME280;37545;45.302;-122.946;2022-11-28T07:45:03;100663.88;;;5.72;100.00
51468;BME280;37545;45.302;-122.946;2022-11-28T07:47:33;100667.25;;;5.71;100.00
51468;BME280;37545;45.302;-122.946;2022-11-28T07:50:02;100669.75;;;5.70;100.00
51468;BME280;37545;45.302;-122.946;2022-11-28T07:52:31;100680.75;;;5.67;100.00
51468;BME280;37545;45.302;-122.946;2022-11-28T07:55:00;100678.09;;;5.65;100.00
51468;BME280;37545;45.302;-122.946;2022-11-28T07:57:30;100672.84;;;5.62;100.00
51468;BME280;37545;45.302;-122.946;2022-11-28T07:59:59;100682.44;;;5.66;100.00
51468;BME280;37545;45.302;-122.946;2022-11-28T08:02:28;100677.97;;;5.62;100.00
51468;BME280;37545;45.302;-122.946;2022-11-28T08:04:58;100676.28;;;5.63;100.00
51468;BME280;37545;45.302;-122.946;2022-11-28T08:07:27;100670.25;;;5.62;100.00
51468;BME280;37545;45.302;-122.946;2022-11-28T08:09:56;100672.97;;;5.65;100.00
51468;BME280;37545;45.302;-122.946;2022-11-28T08:12:24;100669.75;;;5.70;100.00
51468;BME280;37545;45.302;-122.946;2022-11-28T08:14:55;100669.09;;;5.74;100.00
51468;BME280;37545;45.302;-122.946;2022-11-28T08:17:23;100667.56;;;5.77;100.00
51468;BME280;37545;45.302;-122.946;2022-11-28T08:19:52;100653.91;;;5.78;100.00
51468;BME280;37545;45.302;-122.946;2022-11-28T08:22:21;100654.84;;;5.80;100.00
51468;BME280;37545;45.302;-122.946;2022-11-28T08:24:49;100648.69;;;5.77;100.00
51468;BME280;37545;45.302;-122.946;2022-11-28T08:27:18;100647.94;;;5.79;100.00
51468;BME280;37545;45.302;-122.946;2022-11-28T08:29:47;100654.03;;;5.81;100.00
51468;BME280;37545;45.302;-122.946;2022-11-28T08:32:18;100652.38;;;5.82;100.00
51468;BME280;37545;45.302;-122.946;2022-11-28T08:34:47;100638.63;;;5.81;100.00
51468;BME280;37545;45.302;-122.946;2022-11-28T08:37:16;100650.59;;;5.81;100.00
51468;BME280;37545;45.302;-122.946;2022-11-28T08:39:44;100659.25;;;5.83;100.00
51468;BME280;37545;45.302;-122.946;2022-11-28T08:42:13;100659.34;;;5.84;100.00
51468;BME280;37545;45.302;-122.946;2022-11-28T08:44:42;100649.06;;;5.84;100.00
51468;BME280;37545;45.302;-122.946;2022-11-28T08:47:10;100661.16;;;5.87;100.00
51468;BME280;37545;45.302;-122.946;2022-11-28T08:49:41;100656.81;;;5.86;100.00
51468;BME280;37545;45.302;-122.946;2022-11-28T08:52:09;100662.91;;;5.88;100.00
51468;BME280;37545;45.302;-122.946;2022-11-28T08:54:38;100655.22;;;5.88;100.00
51468;BME280;37545;45.302;-122.946;2022-11-28T08:57:07;100650.81;;;5.85;100.00
51468;BME280;37545;45.302;-122.946;2022-11-28T08:59:36;100653.03;;;5.78;100.00
51468;BME280;37545;45.302;-122.946;2022-11-28T09:02:05;100641.72;;;5.74;100.00
51468;BME280;37545;45.302;-122.946;2022-11-28T09:04:33;100626.09;;;5.70;100.00
51468;BME280;37545;45.302;-122.946;2022-11-28T09:07:04;100619.22;;;5.69;100.00
51468;BME280;37545;45.302;-122.946;2022-11-28T09:09:32;100620.00;;;5.67;100.00
51468;BME280;37545;45.302;-122.946;2022-11-28T09:12:01;100616.56;;;5.67;100.00
51468;BME280;37545;45.302;-122.946;2022-11-28T09:14:30;100607.91;;;5.65;100.00
51468;BME280;37545;45.302;-122.946;2022-11-28T09:16:59;100601.78;;;5.61;100.00
51468;BME280;37545;45.302;-122.946;2022-11-28T09:19:27;100594.94;;;5.62;100.00
51468;BME280;37545;45.302;-122.946;2022-11-28T09:21:56;100604.47;;;5.64;100.00
51468;BME280;37545;45.302;-122.946;2022-11-28T09:24:26;100601.63;;;5.58;100.00
51468;BME280;37545;45.302;-122.946;2022-11-28T09:26:55;100608.00;;;5.49;100.00
51468;BME280;37545;45.302;-122.946;2022-11-28T09:29:24;100613.88;;;5.46;100.00
51468;BME280;37545;45.302;-122.946;2022-11-28T09:31:53;100610.50;;;5.47;100.00
51468;BME280;37545;45.302;-122.946;2022-11-28T09:34:22;100608.84;;;5.48;100.00
51468;BME280;37545;45.302;-122.946;2022-11-28T09:36:51;100603.63;;;5.46;100.00
51468;BME280;37545;45.302;-122.946;2022-11-28T09:39:19;100602.78;;;5.47;100.00
51468;BME280;37545;45.302;-122.946;2022-11-28T09:42:01;100599.50;;;5.50;100.00
51468;BME280;37545;45.302;-122.946;2022-11-28T09:44:36;100597.00;;;5.51;100.00
51468;BME280;37545;45.302;-122.946;2022-11-28T09:47:13;100593.66;;;5.52;100.00
51468;BME280;37545;45.302;-122.946;2022-11-28T09:49:48;100593.78;;;5.55;100.00
51468;BME280;37545;45.302;-122.946;2022-11-28T09:52:27;100597.34;;;5.59;100.00
51468;BME280;37545;45.302;-122.946;2022-11-28T09:55:15;100604.34;;;5.61;100.00
51468;BME280;37545;45.302;-122.946;2022-11-28T09:57:48;100608.75;;;5.64;100.00
51468;BME280;37545;45.302;-122.946;2022-11-28T10:00:19;100612.19;;;5.64;100.00
51468;BME280;37545;45.302;-122.946;2022-11-28T10:03:08;100610.50;;;5.65;100.00
51468;BME280;37545;45.302;-122.946;2022-11-28T10:05:42;100617.41;;;5.66;100.00
51468;BME280;37545;45.302;-122.946;2022-11-28T10:08:22;100618.28;;;5.66;100.00
51468;BME280;37545;45.302;-122.946;2022-11-28T10:11:00;100619.16;;;5.67;100.00
51468;BME280;37545;45.302;-122.946;2022-11-28T10:13:40;100609.75;;;5.67;100.00
51468;BME280;37545;45.302;-122.946;2022-11-28T10:16:19;100607.25;;;5.69;100.00
51468;BME280;37545;45.302;-122.946;2022-11-28T10:18:52;100602.22;;;5.71;100.00
51468;BME280;37545;45.302;-122.946;2022-11-28T10:21:28;100606.59;;;5.73;100.00
51468;BME280;37545;45.302;-122.946;2022-11-28T10:24:01;100597.13;;;5.72;100.00
51468;BME280;37545;45.302;-122.946;2022-11-28T10:26:35;100596.88;;;5.66;100.00
51468;BME280;37545;45.302;-122.946;2022-11-28T10:29:14;100595.69;;;5.59;100.00
51468;BME280;37545;45.302;-122.946;2022-11-28T10:31:51;100590.56;;;5.59;100.00
51468;BME280;37545;45.302;-122.946;2022-11-28T10:34:25;100586.44;;;5.63;100.00
51468;BME280;37545;45.302;-122.946;2022-11-28T10:37:00;100585.56;;;5.62;100.00
51468;BME280;37545;45.302;-122.946;2022-11-28T10:39:30;100589.09;;;5.64;100.00
51468;BME280;37545;45.302;-122.946;2022-11-28T10:42:03;100576.91;;;5.60;100.00
51468;BME280;37545;45.302;-122.946;2022-11-28T10:44:54;100577.50;;;5.55;100.00
51468;BME280;37545;45.302;-122.946;2022-11-28T10:47:49;100568.56;;;5.46;100.00
51468;BME280;37545;45.302;-122.946;2022-11-28T10:50:26;100576.03;;;5.42;100.00
51468;BME280;37545;45.302;-122.946;2022-11-28T10:53:00;100570.13;;;5.43;100.00
51468;BME280;37545;45.302;-122.946;2022-11-28T10:55:39;100571.94;;;5.45;100.00
51468;BME280;37545;45.302;-122.946;2022-11-28T10:58:19;100578.25;;;5.52;100.00
51468;BME280;37545;45.302;-122.946;2022-11-28T11:00:54;100580.06;;;5.55;100.00
51468;BME280;37545;45.302;-122.946;2022-11-28T11:03:26;100585.25;;;5.56;100.00
51468;BME280;37545;45.302;-122.946;2022-11-28T11:05:56;100587.03;;;5.57;100.00
51468;BME280;37545;45.302;-122.946;2022-11-28T11:08:26;100588.66;;;5.55;100.00
51468;BME280;37545;45.302;-122.946;2022-11-28T11:11:00;100593.91;;;5.58;100.00
51468;BME280;37545;45.302;-122.946;2022-11-28T11:13:31;100586.88;;;5.54;100.00
51468;BME280;37545;45.302;-122.946;2022-11-28T11:16:03;100589.44;;;5.54;100.00
51468;BME280;37545;45.302;-122.946;2022-11-28T11:18:35;100593.47;;;5.49;100.00
51468;BME280;37545;45.302;-122.946;2022-11-28T11:21:09;100589.97;;;5.47;100.00
51468;BME280;37545;45.302;-122.946;2022-11-28T11:23:41;100582.03;;;5.42;100.00
51468;BME280;37545;45.302;-122.946;2022-11-28T11:26:21;100587.25;;;5.44;100.00
51468;BME280;37545;45.302;-122.946;2022-11-28T11:28:51;100590.66;;;5.43;100.00
51468;BME280;37545;45.302;-122.946;2022-11-28T11:31:25;100592.25;;;5.41;100.00
51468;BME280;37545;45.302;-122.946;2022-11-28T11:34:03;100580.31;;;5.41;100.00
51468;BME280;37545;45.302;-122.946;2022-11-28T11:36:34;100590.66;;;5.43;100.00
51468;BME280;37545;45.302;-122.946;2022-11-28T11:39:22;100594.31;;;5.48;100.00
51468;BME280;37545;45.302;-122.946;2022-11-28T11:42:09;100605.56;;;5.52;100.00
51468;BME280;37545;45.302;-122.946;2022-11-28T11:44:38;100594.53;;;5.53;100.00
51468;BME280;37545;45.302;-122.946;2022-11-28T11:47:08;100603.00;;;5.52;100.00
51468;BME280;37545;45.302;-122.946;2022-11-28T11:49:39;100600.41;;;5.50;100.00
51468;BME280;37545;45.302;-122.946;2022-11-28T11:52:16;100594.22;;;5.46;100.00
51468;BME280;37545;45.302;-122.946;2022-11-28T11:55:01;100597.66;;;5.47;100.00
51468;BME280;37545;45.302;-122.946;2022-11-28T11:57:34;100588.34;;;5.49;100.00
51468;BME280;37545;45.302;-122.946;2022-11-28T12:00:09;100584.09;;;5.50;100.00
51468;BME280;37545;45.302;-122.946;2022-11-28T12:02:43;100597.81;;;5.50;100.00
51468;BME280;37545;45.302;-122.946;2022-11-28T12:05:14;100590.91;;;5.49;100.00
51468;BME280;37545;45.302;-122.946;2022-11-28T12:07:51;100597.81;;;5.50;100.00
51468;BME280;37545;45.302;-122.946;2022-11-28T12:10:24;100590.91;;;5.49;100.00
51468;BME280;37545;45.302;-122.946;2022-11-28T12:12:53;100600.22;;;5.47;100.00
51468;BME280;37545;45.302;-122.946;2022-11-28T12:15:30;100600.00;;;5.42;100.00
51468;BME280;37545;45.302;-122.946;2022-11-28T12:18:14;100600.09;;;5.44;100.00
51468;BME280;37545;45.302;-122.946;2022-11-28T12:20:59;100608.63;;;5.43;100.00
51468;BME280;37545;45.302;-122.946;2022-11-28T12:23:55;100605.22;;;5.44;100.00
51468;BME280;37545;45.302;-122.946;2022-11-28T12:26:37;100597.53;;;5.44;100.00
51468;BME280;37545;45.302;-122.946;2022-11-28T12:29:21;100600.09;;;5.44;100.00
51468;BME280;37545;45.302;-122.946;2022-11-28T12:32:06;100604.19;;;5.40;100.00
51468;BME280;37545;45.302;-122.946;2022-11-28T12:34:47;100603.31;;;5.40;100.00
51468;BME280;37545;45.302;-122.946;2022-11-28T12:37:27;100592.25;;;5.41;100.00
51468;BME280;37545;45.302;-122.946;2022-11-28T12:40:05;100595.56;;;5.38;100.00
51468;BME280;37545;45.302;-122.946;2022-11-28T12:42:52;100593.66;;;5.34;100.00
51468;BME280;37545;45.302;-122.946;2022-11-28T12:45:41;100592.78;;;5.34;100.00
51468;BME280;37545;45.302;-122.946;2022-11-28T12:48:33;100595.41;;;5.35;100.00
51468;BME280;37545;45.302;-122.946;2022-11-28T12:51:15;100603.91;;;5.34;100.00